createdAt,value
2022-10-20T00:05:05.138Z,9.85
2022-10-20T00:10:28.198Z,9.78
2022-10-20T00:15:51.680Z,9.74
2022-10-20T00:21:18.222Z,9.76
2022-10-20T00:26:41.630Z,9.74
2022-10-20T00:32:04.842Z,9.88
2022-10-20T00:37:29.282Z,9.79
2022-10-20T00:42:52.408Z,9.83
2022-10-20T00:48:17.307Z,9.72
2022-10-20T00:53:41.793Z,9.76
2022-10-20T00:59:05.334Z,9.74
2022-10-20T01:04:30.953Z,9.72
2022-10-20T01:09:55.710Z,9.72
2022-10-20T01:21:23.291Z,9.76
2022-10-20T01:27:02.020Z,9.71
2022-10-20T01:32:33.900Z,9.76
2022-10-20T01:38:04.905Z,9.73
2022-10-20T01:43:30.058Z,9.58
2022-10-20T01:48:54.990Z,9.62
2022-10-20T01:54:26.487Z,9.56
2022-10-20T01:59:59.520Z,9.56
2022-10-20T02:05:37.653Z,9.43
2022-10-20T02:11:02.971Z,9.41
2022-10-20T02:16:29.620Z,9.37
2022-10-20T02:21:55.230Z,9.43
2022-10-20T02:27:20.624Z,9.50
2022-10-20T02:32:50.016Z,9.45
2022-10-20T02:38:14.538Z,9.41
2022-10-20T02:43:37.595Z,9.39
2022-10-20T02:49:00.620Z,9.32
2022-10-20T02:54:25.215Z,9.37
2022-10-20T02:59:48.327Z,9.31
2022-10-20T03:05:11.400Z,9.31
2022-10-20T03:10:37.484Z,9.28
2022-10-20T03:16:02.523Z,9.26
2022-10-20T03:21:25.608Z,9.28
2022-10-20T03:26:50.094Z,9.22
2022-10-20T03:32:13.192Z,9.27
2022-10-20T03:37:36.312Z,9.21
2022-10-20T03:43:00.835Z,9.13
2022-10-20T03:48:23.956Z,9.20
2022-10-20T03:53:47.041Z,9.03
2022-10-20T03:59:12.296Z,9.06
2022-10-20T04:04:36.043Z,9.03
2022-10-20T04:10:02.130Z,9.12
2022-10-20T04:15:26.669Z,9.01
2022-10-20T04:20:49.790Z,9.04
2022-10-20T04:26:14.546Z,8.97
2022-10-20T04:31:39.022Z,9.05
2022-10-20T04:37:02.260Z,9.03
2022-10-20T04:42:25.444Z,8.99
2022-10-20T04:47:49.843Z,9.06
2022-10-20T04:53:13.025Z,9.08
2022-10-20T04:58:36.769Z,9.28
2022-10-20T05:04:01.254Z,9.45
2022-10-20T05:09:24.382Z,9.32
2022-10-20T05:14:47.952Z,9.44
2022-10-20T05:20:12.673Z,9.41
2022-10-20T05:25:37.893Z,9.48
2022-10-20T05:31:03.309Z,9.52
2022-10-20T05:36:28.341Z,9.56
2022-10-20T05:41:51.460Z,9.53
2022-10-20T05:47:14.584Z,9.50
2022-10-20T05:52:39.311Z,9.57
2022-10-20T05:58:02.485Z,9.59
2022-10-20T06:03:28.299Z,9.47
2022-10-20T06:08:53.582Z,9.67
2022-10-20T06:14:17.317Z,9.68
2022-10-20T06:19:40.403Z,9.76
2022-10-20T06:25:05.598Z,9.78
2022-10-20T06:30:28.689Z,9.83
2022-10-20T06:35:51.808Z,9.91
2022-10-20T06:41:18.315Z,9.78
2022-10-20T06:46:41.451Z,10.00
2022-10-20T06:52:04.986Z,10.05
2022-10-20T06:57:32.075Z,10.07
2022-10-20T07:02:55.200Z,10.15
2022-10-20T07:08:18.382Z,10.23
2022-10-20T07:13:43.339Z,10.38
2022-10-20T07:19:06.475Z,10.37
2022-10-20T07:24:30.034Z,10.49
2022-10-20T07:29:54.564Z,10.55
2022-10-20T07:35:17.891Z,10.63
2022-10-20T07:40:40.990Z,10.64
2022-10-20T07:46:06.009Z,10.72
2022-10-20T07:51:31.657Z,10.82
2022-10-20T07:56:54.769Z,10.93
2022-10-20T08:02:20.747Z,11.08
2022-10-20T08:07:43.982Z,10.99
2022-10-20T08:13:07.263Z,11.09
2022-10-20T08:18:32.940Z,11.16
2022-10-20T08:23:56.185Z,11.27
2022-10-20T08:29:19.387Z,11.26
2022-10-20T08:34:43.815Z,11.30
2022-10-20T08:40:07.868Z,11.63
2022-10-20T08:45:34.689Z,11.71
2022-10-20T08:51:02.297Z,12.06
2022-10-20T08:56:27.428Z,12.20
2022-10-20T09:01:50.650Z,12.06
2022-10-20T09:07:23.737Z,12.15
2022-10-20T09:12:48.433Z,12.44
2022-10-20T09:18:13.457Z,12.58
2022-10-20T09:23:41.534Z,12.74
2022-10-20T09:29:13.466Z,12.99
2022-10-20T09:34:37.480Z,12.66
2022-10-20T09:40:01.958Z,12.73
2022-10-20T09:45:28.655Z,12.88
2022-10-20T09:50:55.106Z,12.60
2022-10-20T09:56:26.593Z,12.60
2022-10-20T10:01:57.591Z,12.55
2022-10-20T10:07:31.711Z,12.59
2022-10-20T10:13:00.763Z,12.63
2022-10-20T10:18:24.187Z,12.49
2022-10-20T10:23:54.758Z,12.66
2022-10-20T10:29:22.009Z,12.58
2022-10-20T10:34:52.496Z,12.52
2022-10-20T10:40:18.049Z,12.52
2022-10-20T10:45:51.454Z,12.65
2022-10-20T10:51:21.434Z,12.83
2022-10-20T10:56:46.367Z,12.67
2022-10-20T11:02:45.503Z,12.66
2022-10-20T11:08:19.415Z,12.84
2022-10-20T11:13:44.879Z,12.81
2022-10-20T11:19:35.381Z,12.81
2022-10-20T11:25:04.298Z,12.92
2022-10-20T11:30:28.339Z,12.86
2022-10-20T11:35:55.075Z,13.04
2022-10-20T11:41:23.873Z,13.11
2022-10-20T11:46:49.909Z,13.12
2022-10-20T11:52:55.911Z,13.11
2022-10-20T11:58:34.140Z,13.15
2022-10-20T12:04:26.855Z,13.03
2022-10-20T12:10:03.654Z,13.19
2022-10-20T12:15:28.873Z,13.16
2022-10-20T12:20:55.143Z,13.21
2022-10-20T12:26:42.385Z,13.35
2022-10-20T12:32:39.553Z,13.35
2022-10-20T12:38:05.361Z,13.35
2022-10-20T12:43:34.682Z,13.36
2022-10-20T12:49:01.136Z,13.04
2022-10-20T12:54:27.018Z,13.03
2022-10-20T12:59:50.182Z,13.00
2022-10-20T13:05:29.142Z,13.09
2022-10-20T13:11:13.175Z,13.22
2022-10-20T13:16:36.390Z,13.29
2022-10-20T13:22:00.962Z,13.58
2022-10-20T13:27:24.406Z,13.76
2022-10-20T13:33:11.232Z,13.88
2022-10-20T13:38:43.369Z,14.06
2022-10-20T13:44:11.957Z,14.15
2022-10-20T13:49:52.532Z,14.24
2022-10-20T13:55:21.469Z,14.28
2022-10-20T14:00:57.096Z,14.49
2022-10-20T14:06:30.921Z,14.48
2022-10-20T14:11:59.853Z,14.55
2022-10-20T14:17:26.426Z,14.59
2022-10-20T14:22:49.880Z,14.53
2022-10-20T14:28:19.929Z,14.56
2022-10-20T14:33:45.344Z,14.60
2022-10-20T14:39:18.301Z,14.63
2022-10-20T14:44:44.920Z,14.80
2022-10-20T14:50:15.085Z,14.78
2022-10-20T14:55:38.347Z,14.89
2022-10-20T15:01:16.885Z,14.90
2022-10-20T15:06:39.989Z,14.86
2022-10-20T15:12:06.506Z,14.95
2022-10-20T15:17:41.369Z,14.91
2022-10-20T15:23:06.319Z,15.14
2022-10-20T15:28:36.425Z,15.18
2022-10-20T15:34:03.719Z,15.30
2022-10-20T15:39:26.781Z,15.40
2022-10-20T15:44:52.770Z,15.28
2022-10-20T15:50:40.531Z,15.30
2022-10-20T15:56:03.566Z,15.22
2022-10-20T16:01:27.977Z,15.27
2022-10-20T16:06:57.627Z,15.20
2022-10-20T16:12:24.087Z,15.13
2022-10-20T16:23:17.159Z,15.15
2022-10-20T16:28:40.305Z,15.06
2022-10-20T16:34:03.444Z,14.96
2022-10-20T16:39:28.156Z,15.01
2022-10-20T16:44:51.242Z,14.98
2022-10-20T16:50:14.304Z,15.06
2022-10-20T16:55:38.780Z,14.98
2022-10-20T17:01:03.948Z,14.95
2022-10-20T17:06:27.906Z,14.98
2022-10-20T17:11:52.583Z,14.96
2022-10-20T17:17:15.589Z,14.90
2022-10-20T17:22:38.968Z,14.85
2022-10-20T17:28:03.558Z,14.83
2022-10-20T17:33:27.852Z,14.86
2022-10-20T17:38:54.528Z,14.81
2022-10-20T17:44:18.987Z,14.85
2022-10-20T17:49:42.037Z,14.84
2022-10-20T17:55:07.355Z,14.82
2022-10-20T18:00:51.485Z,14.85
2022-10-20T18:06:17.101Z,14.83
2022-10-20T18:11:41.458Z,14.80
2022-10-20T18:17:05.948Z,14.75
2022-10-20T18:22:29.020Z,14.83
2022-10-20T18:27:54.138Z,14.74
2022-10-20T18:33:18.565Z,14.77
2022-10-20T18:38:42.907Z,14.69
2022-10-20T18:44:08.180Z,14.76
2022-10-20T18:49:32.908Z,14.63
2022-10-20T18:54:56.119Z,14.69
2022-10-20T19:00:19.307Z,14.66
2022-10-20T19:05:43.719Z,14.59
2022-10-20T19:11:08.640Z,14.61
2022-10-20T19:16:33.366Z,14.64
2022-10-20T19:21:57.752Z,14.69
2022-10-20T19:27:26.486Z,14.66
2022-10-20T19:32:52.281Z,14.72
2022-10-20T19:38:16.759Z,14.74
2022-10-20T19:43:40.117Z,14.85
2022-10-20T19:49:03.218Z,14.83
2022-10-20T19:54:27.813Z,14.89
2022-10-20T19:59:50.908Z,14.91
2022-10-20T20:05:13.967Z,14.95
2022-10-20T20:10:38.917Z,14.83
2022-10-20T20:16:07.262Z,14.85
2022-10-20T20:21:31.296Z,14.73
2022-10-20T20:26:55.714Z,14.66
2022-10-20T20:32:18.786Z,14.70
2022-10-20T20:37:41.851Z,14.61
2022-10-20T20:43:06.208Z,14.55
2022-10-20T20:48:29.225Z,14.48
2022-10-20T20:53:52.251Z,14.52
2022-10-20T20:59:16.663Z,14.51
2022-10-20T21:04:39.743Z,14.57
2022-10-20T21:10:02.789Z,14.55
2022-10-20T21:15:27.214Z,14.59
2022-10-20T21:20:50.218Z,14.50
2022-10-20T21:26:14.989Z,14.63
2022-10-20T21:31:40.394Z,14.72
2022-10-20T21:37:03.438Z,14.63
2022-10-20T21:42:26.434Z,14.57
2022-10-20T21:47:55.382Z,14.61
2022-10-20T21:53:20.981Z,14.51
2022-10-20T21:58:44.151Z,14.55
2022-10-20T22:04:09.795Z,14.66
2022-10-20T22:09:32.946Z,14.57
2022-10-20T22:14:55.995Z,14.55
2022-10-20T22:20:20.412Z,14.48
2022-10-20T22:25:44.749Z,14.40
2022-10-20T22:31:08.687Z,14.44
2022-10-20T22:36:33.093Z,14.45
2022-10-20T22:41:56.070Z,14.36
2022-10-20T22:47:19.111Z,14.41
2022-10-20T22:52:43.542Z,14.23
2022-10-20T22:58:06.578Z,14.12
2022-10-20T23:03:29.624Z,13.96
2022-10-20T23:08:56.086Z,14.03
2022-10-20T23:14:19.353Z,14.06
2022-10-20T23:19:42.333Z,14.14
2022-10-20T23:25:07.670Z,14.05
2022-10-20T23:30:30.704Z,13.99
2022-10-20T23:35:53.720Z,13.98
2022-10-20T23:41:18.155Z,14.02
2022-10-20T23:46:41.121Z,14.19
2022-10-20T23:52:04.164Z,14.13
2022-10-20T23:57:28.585Z,14.24
